Time;durP1;ratioP1;P1;durP2;ratioP2;P2;SDS_P1;SDS_P2;PMS_P1;PMS_P2;Temp;Humidity;BMP_temperature;BMP_pressure;BME280_temperature;BME280_humidity;BME280_pressure;Samples;Min_cycle;Max_cycle;Signal;HPM_P1;HPM_P2
2022/09/27 07:57:26;;;;;;;3.65;3.17;;;;;;;;;;6205677;22;20145;-86
2022/09/27 08:48:56;;;;;;;2.70;2.20;;;;;;;;;;6276043;22;20011;-81
2022/09/27 08:51:29;;;;;;;2.80;2.10;;;;;;;;;;6250256;22;20011;-79
2022/09/27 08:54:13;;;;;;;2.40;2.20;;;;;;;;;;6250009;22;20010;-80
2022/09/27 08:56:39;;;;;;;2.25;2.05;;;;;;;;;;6221468;23;20001;-85
2022/09/27 08:59:27;;;;;;;2.42;2.22;;;;;;;;;;6246637;23;20010;-89
2022/09/27 09:01:53;;;;;;;2.90;2.00;;;;;;;;;;6219497;23;20004;-86
2022/09/27 09:04:40;;;;;;;2.10;2.00;;;;;;;;;;6246371;23;20015;-80
2022/09/27 09:07:11;;;;;;;2.17;1.98;;;;;;;;;;6219771;23;20028;-82
2022/09/27 09:09:42;;;;;;;2.20;2.00;;;;;;;;;;6246945;23;20003;-80
2022/09/27 09:12:48;;;;;;;2.13;2.03;;;;;;;;;;6219631;23;20473;-80
2022/09/27 09:15:27;;;;;;;2.55;2.20;;;;;;;;;;6246631;22;20000;-84
2022/09/27 09:18:14;;;;;;;1.95;1.85;;;;;;;;;;6246973;23;20004;-85
2022/09/27 09:21:20;;;;;;;1.83;1.73;;;;;;;;;;6246853;23;20000;-90
2022/09/27 09:24:10;;;;;;;3.00;2.10;;;;;;;;;;6248051;23;20059;-89
2022/09/27 09:27:27;;;;;;;2.55;2.35;;;;;;;;;;6219857;23;19996;-89
2022/09/27 09:30:11;;;;;;;2.95;2.50;;;;;;;;;;6237948;23;20027;-89
2022/09/27 09:32:38;;;;;;;2.45;2.25;;;;;;;;;;6246755;23;20031;-89
2022/09/27 09:35:10;;;;;;;2.80;2.60;;;;;;;;;;6246443;22;20011;-91
2022/09/27 09:37:57;;;;;;;3.03;2.40;;;;;;;;;;6246758;23;19997;-77
2022/09/27 09:40:29;;;;;;;3.17;2.97;;;;;;;;;;6246722;23;20008;-77
2022/09/27 09:43:14;;;;;;;3.53;2.85;;;;;;;;;;6246567;23;20419;-77
2022/09/27 09:45:44;;;;;;;4.18;3.13;;;;;;;;;;6246638;22;19996;-77
2022/09/27 09:48:29;;;;;;;2.92;2.30;;;;;;;;;;6246546;23;20007;-80
2022/09/27 09:50:58;;;;;;;3.45;3.15;;;;;;;;;;6246637;23;20075;-88
2022/09/27 09:53:40;;;;;;;3.22;2.92;;;;;;;;;;6246984;23;20026;-90
2022/09/27 09:56:20;;;;;;;5.22;4.07;;;;;;;;;;6246478;22;20007;-89
2022/09/27 09:59:12;;;;;;;3.42;3.13;;;;;;;;;;6246790;23;20004;-90
2022/09/27 10:01:47;;;;;;;4.50;4.10;;;;;;;;;;6230551;23;20004;-90
2022/09/27 10:04:24;;;;;;;4.70;4.18;;;;;;;;;;6246557;23;20008;-78
2022/09/27 10:06:51;;;;;;;3.95;3.63;;;;;;;;;;6247319;23;20000;-90
2022/09/27 10:09:23;;;;;;;5.20;4.70;;;;;;;;;;6246771;23;19996;-89
2022/09/27 10:11:48;;;;;;;5.03;4.03;;;;;;;;;;6246690;23;20335;-84
2022/09/27 10:14:16;;;;;;;5.50;5.00;;;;;;;;;;6246500;23;20007;-79
2022/09/27 10:16:47;;;;;;;6.38;5.35;;;;;;;;;;6247956;22;20008;-79
2022/09/27 10:19:16;;;;;;;5.53;4.95;;;;;;;;;;6247918;23;20004;-84
2022/09/27 10:21:44;;;;;;;6.20;5.13;;;;;;;;;;6248244;23;20004;-80
2022/09/27 10:24:14;;;;;;;6.18;5.43;;;;;;;;;;6248131;23;20004;-77
2022/09/27 10:26:43;;;;;;;5.28;4.22;;;;;;;;;;6247982;22;20054;-82
2022/09/27 10:29:22;;;;;;;4.27;3.87;;;;;;;;;;6247774;23;20013;-87
2022/09/27 10:31:49;;;;;;;6.95;5.88;;;;;;;;;;6248125;23;20427;-87
2022/09/27 10:34:25;;;;;;;6.20;5.60;;;;;;;;;;6248182;23;20300;-88
2022/09/27 10:37:01;;;;;;;7.68;6.32;;;;;;;;;;6247824;23;19996;-89
2022/09/27 10:39:27;;;;;;;7.85;5.95;;;;;;;;;;6248260;23;20027;-78
2022/09/27 10:41:52;;;;;;;6.35;5.22;;;;;;;;;;6248158;23;19996;-90
2022/09/27 10:44:26;;;;;;;7.15;4.95;;;;;;;;;;6248222;23;20004;-88
2022/09/27 10:47:06;;;;;;;7.18;5.82;;;;;;;;;;6247944;23;20071;-86
2022/09/27 10:49:39;;;;;;;9.07;4.75;;;;;;;;;;6247801;23;20023;-87
2022/09/27 10:52:15;;;;;;;6.03;4.75;;;;;;;;;;6248090;23;20079;-87
2022/09/27 10:54:41;;;;;;;6.38;4.63;;;;;;;;;;6247842;22;19997;-82
2022/09/27 10:57:12;;;;;;;4.60;4.15;;;;;;;;;;6248098;23;20000;-87
2022/09/27 10:59:41;;;;;;;4.35;3.90;;;;;;;;;;6248263;23;20023;-88
2022/09/27 11:02:19;;;;;;;4.20;3.90;;;;;;;;;;6248637;23;20008;-88
2022/09/27 11:05:02;;;;;;;3.92;3.47;;;;;;;;;;6248160;22;20030;-89
2022/09/27 11:07:28;;;;;;;4.75;4.35;;;;;;;;;;6248183;23;20534;-88
2022/09/27 11:10:01;;;;;;;6.50;5.40;;;;;;;;;;6248502;23;20031;-86
2022/09/27 11:12:29;;;;;;;5.43;4.90;;;;;;;;;;6247605;23;20061;-83
2022/09/27 11:15:14;;;;;;;6.38;5.03;;;;;;;;;;6248176;22;20023;-88
2022/09/27 11:17:45;;;;;;;5.80;4.20;;;;;;;;;;6247930;23;20007;-86
2022/09/27 11:20:16;;;;;;;5.88;4.05;;;;;;;;;;6248039;23;20004;-87
2022/09/27 11:23:04;;;;;;;6.78;5.80;;;;;;;;;;6221317;23;20008;-88
2022/09/27 11:25:56;;;;;;;5.70;5.20;;;;;;;;;;6178361;22;20079;-88
2022/09/27 11:28:36;;;;;;;7.15;5.60;;;;;;;;;;6220722;23;20336;-87
2022/09/27 11:31:23;;;;;;;5.05;4.55;;;;;;;;;;6247554;23;20000;-86
2022/09/27 11:34:07;;;;;;;5.28;4.78;;;;;;;;;;6246958;23;20020;-82
2022/09/27 11:36:45;;;;;;;6.85;5.18;;;;;;;;;;6246892;22;20030;-80
2022/09/27 11:39:13;;;;;;;5.20;4.70;;;;;;;;;;6246826;23;20054;-79
2022/09/27 11:41:51;;;;;;;5.65;5.00;;;;;;;;;;6246858;23;20489;-79
2022/09/27 11:44:50;;;;;;;6.72;5.60;;;;;;;;;;6247193;23;19997;-78
2022/09/27 11:47:44;;;;;;;7.25;5.93;;;;;;;;;;6247504;23;20012;-80
2022/09/27 11:50:19;;;;;;;8.15;6.40;;;;;;;;;;6246800;23;20012;-81
2022/09/27 16:12:13;;;;;;;5.38;4.88;;;;;;;;;;6249643;22;20103;-81
2022/09/27 16:14:39;;;;;;;5.57;3.95;;;;;;;;;;6275055;22;20019;-86
2022/09/27 16:17:05;;;;;;;4.30;3.90;;;;;;;;;;6277648;22;20438;-86
2022/09/27 16:19:32;;;;;;;3.55;3.25;;;;;;;;;;6271708;22;20004;-86
2022/09/27 16:22:02;;;;;;;3.97;3.58;;;;;;;;;;6246873;22;20065;-85
2022/09/27 16:24:28;;;;;;;3.92;3.30;;;;;;;;;;6247044;22;19996;-85
2022/09/27 16:26:54;;;;;;;4.07;3.67;;;;;;;;;;6247061;22;20475;-85
2022/09/27 16:29:19;;;;;;;3.65;3.35;;;;;;;;;;6246988;22;20089;-86
2022/09/27 16:31:46;;;;;;;3.92;3.58;;;;;;;;;;6246759;22;20450;-86
2022/09/27 16:34:11;;;;;;;4.82;4.05;;;;;;;;;;6247124;22;20000;-86
2022/09/27 16:36:37;;;;;;;6.90;4.60;;;;;;;;;;6246746;22;20082;-86
2022/09/27 16:39:05;;;;;;;7.25;5.40;;;;;;;;;;6245057;22;20011;-85
2022/09/27 16:41:32;;;;;;;8.20;5.45;;;;;;;;;;6246596;22;20000;-87
2022/09/27 16:43:58;;;;;;;6.28;5.65;;;;;;;;;;6246662;22;20004;-86
2022/09/27 16:46:24;;;;;;;6.72;6.05;;;;;;;;;;6246812;22;20011;-87
2022/09/27 16:48:49;;;;;;;6.07;5.32;;;;;;;;;;6246529;22;20004;-86
2022/09/27 16:54:05;;;;;;;;;;;;;;;;;;6247367;23;20088;-86
2022/09/27 16:56:31;;;;;;;7.13;6.10;;;;;;;;;;6247694;22;19939;-88
2022/09/27 16:58:58;;;;;;;7.50;6.53;;;;;;;;;;6246861;22;20004;-86
2022/09/27 17:01:24;;;;;;;6.60;5.80;;;;;;;;;;6246433;22;20126;-85
2022/09/27 17:03:52;;;;;;;6.05;5.40;;;;;;;;;;6246420;22;20440;-87
2022/09/27 17:06:18;;;;;;;5.90;4.75;;;;;;;;;;6246441;22;20050;-88
2022/09/27 17:08:44;;;;;;;4.55;3.83;;;;;;;;;;6244954;23;20000;-85
2022/09/27 17:11:15;;;;;;;5.22;4.38;;;;;;;;;;6246512;22;20008;-86
2022/09/27 17:13:42;;;;;;;7.40;4.68;;;;;;;;;;6244996;23;20023;-86
2022/09/27 17:16:07;;;;;;;6.47;4.70;;;;;;;;;;6246399;22;20015;-87
2022/09/27 17:18:33;;;;;;;6.20;4.22;;;;;;;;;;6246878;23;20009;-86
2022/09/27 17:21:01;;;;;;;4.18;3.75;;;;;;;;;;6244882;22;20004;-83
2022/09/27 17:23:26;;;;;;;6.50;5.72;;;;;;;;;;6246660;22;20059;-83
2022/09/27 17:25:55;;;;;;;7.90;6.28;;;;;;;;;;6245692;23;20419;-84
2022/09/27 17:28:21;;;;;;;7.30;6.00;;;;;;;;;;6248890;22;20007;-83
2022/09/27 17:30:47;;;;;;;7.85;5.55;;;;;;;;;;6248491;22;20005;-83
2022/09/27 17:33:12;;;;;;;6.88;6.18;;;;;;;;;;6248712;22;20034;-83
2022/09/27 17:35:38;;;;;;;7.15;6.40;;;;;;;;;;6248439;22;20028;-83
2022/09/27 17:38:04;;;;;;;7.25;6.38;;;;;;;;;;6248776;23;20008;-83
2022/09/27 17:40:30;;;;;;;7.35;4.90;;;;;;;;;;6248566;22;20000;-83
2022/09/27 17:42:55;;;;;;;6.78;5.68;;;;;;;;;;6248501;22;20044;-83
2022/09/27 17:45:21;;;;;;;5.07;4.57;;;;;;;;;;6248518;22;20007;-83
2022/09/27 17:50:30;;;;;;;4.45;4.05;;;;;;;;;;6248132;22;20454;-83
2022/09/27 17:52:57;;;;;;;4.40;4.00;;;;;;;;;;6248251;22;19996;-84
2022/09/27 17:55:23;;;;;;;3.47;3.17;;;;;;;;;;6248519;22;20414;-83
2022/09/27 17:57:50;;;;;;;6.15;5.32;;;;;;;;;;6248374;22;20034;-84
2022/09/27 18:00:17;;;;;;;6.85;6.20;;;;;;;;;;6248165;22;20050;-85
2022/09/27 18:02:45;;;;;;;7.30;6.32;;;;;;;;;;6248107;22;20007;-81
2022/09/27 18:05:11;;;;;;;6.67;5.70;;;;;;;;;;6248195;22;19997;-88
2022/09/27 18:07:37;;;;;;;6.45;5.75;;;;;;;;;;6248151;22;20037;-89
2022/09/27 18:10:04;;;;;;;5.72;4.00;;;;;;;;;;6248108;22;20004;-83
2022/09/27 18:12:33;;;;;;;5.05;4.30;;;;;;;;;;6248322;22;20429;-86
2022/09/27 18:15:03;;;;;;;7.75;5.10;;;;;;;;;;6248267;22;20012;-84
2022/09/27 18:17:29;;;;;;;5.30;4.50;;;;;;;;;;6248055;23;20015;-88
2022/09/27 18:19:56;;;;;;;5.70;4.60;;;;;;;;;;6248326;22;20004;-87
2022/09/27 18:22:28;;;;;;;6.78;4.90;;;;;;;;;;6248245;22;20078;-86
2022/09/27 18:24:54;;;;;;;4.25;3.83;;;;;;;;;;6248169;22;20011;-87
2022/09/27 18:27:20;;;;;;;4.55;4.10;;;;;;;;;;6248062;22;20050;-87
2022/09/27 18:29:46;;;;;;;4.38;3.97;;;;;;;;;;6247932;22;20000;-86
2022/09/27 18:32:11;;;;;;;4.50;3.90;;;;;;;;;;6248148;22;20011;-87
2022/09/27 18:34:38;;;;;;;6.18;4.00;;;;;;;;;;6248390;22;20004;-88
2022/09/27 18:37:04;;;;;;;4.05;3.40;;;;;;;;;;6247481;22;20004;-88
2022/09/27 18:39:30;;;;;;;4.20;3.03;;;;;;;;;;6246179;22;20053;-86
2022/09/27 18:41:57;;;;;;;3.92;3.10;;;;;;;;;;6247998;22;20028;-85
2022/09/27 18:44:24;;;;;;;3.55;3.10;;;;;;;;;;6247885;22;20046;-84
2022/09/27 18:46:50;;;;;;;2.83;2.47;;;;;;;;;;6247704;22;20450;-85
2022/09/27 18:49:16;;;;;;;3.47;3.13;;;;;;;;;;6248092;22;20067;-91
2022/09/27 18:51:44;;;;;;;4.25;3.50;;;;;;;;;;6246356;23;20012;-87
2022/09/27 18:54:16;;;;;;;3.58;3.25;;;;;;;;;;6246416;23;20454;-85
2022/09/27 18:56:43;;;;;;;5.05;3.50;;;;;;;;;;6247744;22;20268;-85
2022/09/27 18:59:09;;;;;;;3.75;3.40;;;;;;;;;;6247563;22;20411;-85
2022/09/27 19:01:38;;;;;;;5.13;4.00;;;;;;;;;;6247811;22;20367;-84
2022/09/27 19:04:05;;;;;;;5.82;4.68;;;;;;;;;;6247603;22;20422;-84
2022/09/27 19:06:30;;;;;;;5.22;4.72;;;;;;;;;;6248009;22;20004;-85
2022/09/27 19:08:59;;;;;;;5.35;4.30;;;;;;;;;;6247865;22;20004;-85
2022/09/27 19:11:27;;;;;;;4.73;4.27;;;;;;;;;;6247701;22;20062;-84
2022/09/27 19:13:55;;;;;;;6.55;4.97;;;;;;;;;;6247249;22;20051;-84
2022/09/27 19:16:26;;;;;;;3.65;3.33;;;;;;;;;;6247476;23;20031;-84
2022/09/27 19:18:52;;;;;;;6.10;3.80;;;;;;;;;;6247310;23;20000;-84
2022/09/27 19:21:21;;;;;;;4.10;3.25;;;;;;;;;;6247379;22;20071;-84
2022/09/27 19:23:48;;;;;;;3.37;3.07;;;;;;;;;;6247273;23;20062;-83
2022/09/27 19:26:17;;;;;;;4.20;3.00;;;;;;;;;;6247288;23;20011;-84
2022/09/27 19:28:44;;;;;;;3.00;2.70;;;;;;;;;;6247402;23;20027;-87
2022/09/27 19:31:18;;;;;;;2.70;2.50;;;;;;;;;;6247252;22;20420;-88
2022/09/27 19:33:44;;;;;;;3.10;2.80;;;;;;;;;;6247812;23;20075;-88
2022/09/27 19:36:12;;;;;;;2.50;2.30;;;;;;;;;;6247621;23;20008;-85
2022/09/27 19:38:38;;;;;;;4.53;3.00;;;;;;;;;;6247340;23;20068;-86
2022/09/27 19:41:06;;;;;;;6.22;2.90;;;;;;;;;;6247175;22;20630;-81
2022/09/27 19:43:32;;;;;;;3.33;2.83;;;;;;;;;;6220128;23;20008;-84
2022/09/27 19:46:08;;;;;;;3.15;2.85;;;;;;;;;;6247138;23;20034;-84
2022/09/27 19:48:37;;;;;;;3.53;2.97;;;;;;;;;;6247274;23;20004;-84
2022/09/27 19:51:04;;;;;;;2.80;2.60;;;;;;;;;;6247010;22;20062;-84
2022/09/27 19:53:31;;;;;;;3.15;2.65;;;;;;;;;;6247064;23;20003;-85
2022/09/27 19:56:06;;;;;;;2.63;2.22;;;;;;;;;;6247200;23;20007;-85
2022/09/27 19:58:34;;;;;;;2.33;2.13;;;;;;;;;;6246995;23;20007;-85
2022/09/27 20:01:05;;;;;;;2.58;2.17;;;;;;;;;;6247023;22;20000;-85
2022/09/27 20:03:32;;;;;;;3.20;1.80;;;;;;;;;;6246889;23;20083;-85
2022/09/27 20:06:00;;;;;;;2.65;2.28;;;;;;;;;;6246714;23;20066;-86
2022/09/27 20:08:27;;;;;;;2.50;1.80;;;;;;;;;;6246932;23;20042;-86
2022/09/27 20:11:14;;;;;;;2.03;1.80;;;;;;;;;;6219981;23;20012;-84
2022/09/27 20:13:41;;;;;;;1.80;1.70;;;;;;;;;;6247016;23;20091;-84
2022/09/27 20:16:15;;;;;;;2.17;2.08;;;;;;;;;;6246709;23;20050;-85
2022/09/27 20:18:52;;;;;;;3.50;1.80;;;;;;;;;;6246860;23;20004;-84
2022/09/27 20:21:20;;;;;;;1.90;1.80;;;;;;;;;;6246629;22;20419;-85
2022/09/27 20:23:51;;;;;;;1.73;1.63;;;;;;;;;;6246863;23;20015;-84
2022/09/27 20:26:19;;;;;;;1.70;1.60;;;;;;;;;;6246574;23;20010;-87
2022/09/27 20:28:50;;;;;;;1.55;1.45;;;;;;;;;;6246615;23;20082;-86
2022/09/27 20:31:22;;;;;;;1.50;1.40;;;;;;;;;;6247165;22;20000;-87
2022/09/27 20:33:49;;;;;;;1.70;1.60;;;;;;;;;;6246755;23;20359;-84
2022/09/27 20:36:17;;;;;;;2.88;2.20;;;;;;;;;;6246784;23;20001;-84
2022/09/27 20:38:46;;;;;;;1.95;1.83;;;;;;;;;;6246912;23;20008;-85
2022/09/27 20:41:16;;;;;;;2.90;1.87;;;;;;;;;;6246556;22;20004;-85
2022/09/27 20:43:42;;;;;;;1.55;1.45;;;;;;;;;;6246573;23;20704;-85
2022/09/27 20:46:11;;;;;;;2.35;1.80;;;;;;;;;;6246617;23;20053;-86
2022/09/27 20:48:37;;;;;;;2.03;1.75;;;;;;;;;;6246608;23;20030;-85
2022/09/27 20:51:03;;;;;;;2.95;1.75;;;;;;;;;;6246450;22;20004;-85
2022/09/27 20:53:30;;;;;;;1.90;1.80;;;;;;;;;;6246768;23;20011;-87
2022/09/27 20:55:58;;;;;;;1.60;1.50;;;;;;;;;;6246424;23;20359;-86
2022/09/27 20:58:24;;;;;;;2.60;2.40;;;;;;;;;;6219742;23;20415;-86
2022/09/27 21:00:50;;;;;;;2.53;2.33;;;;;;;;;;6246060;22;19996;-85
2022/09/27 21:03:16;;;;;;;2.70;2.50;;;;;;;;;;6246251;23;20008;-86
2022/09/27 21:05:55;;;;;;;2.92;2.30;;;;;;;;;;6246431;23;20000;-87
2022/09/27 21:08:21;;;;;;;2.42;2.22;;;;;;;;;;6246735;23;20323;-86
2022/09/27 21:10:48;;;;;;;2.33;2.20;;;;;;;;;;6246533;22;20008;-86
2022/09/27 21:13:13;;;;;;;2.30;2.10;;;;;;;;;;6223428;23;20035;-85
2022/09/27 21:15:39;;;;;;;2.10;1.85;;;;;;;;;;6246766;22;20000;-86
2022/09/27 21:18:05;;;;;;;3.80;1.75;;;;;;;;;;6246610;23;20316;-87
2022/09/27 21:20:30;;;;;;;2.42;2.10;;;;;;;;;;6246203;22;20035;-88
2022/09/27 21:22:56;;;;;;;2.00;1.80;;;;;;;;;;6246348;22;20004;-87
2022/09/27 21:25:22;;;;;;;2.00;1.90;;;;;;;;;;6246232;22;20127;-84
2022/09/27 21:27:56;;;;;;;2.30;2.10;;;;;;;;;;6246778;22;20474;-85
2022/09/27 21:30:23;;;;;;;2.00;1.80;;;;;;;;;;6246195;22;20072;-85
2022/09/27 21:32:55;;;;;;;3.30;1.92;;;;;;;;;;6246370;22;20004;-85
2022/09/27 21:35:21;;;;;;;1.60;1.50;;;;;;;;;;6246308;22;20054;-85
2022/09/27 21:37:47;;;;;;;1.92;1.80;;;;;;;;;;6246216;22;20010;-85
2022/09/27 21:40:13;;;;;;;2.13;1.92;;;;;;;;;;6246239;22;20071;-85
2022/09/27 21:42:39;;;;;;;2.35;2.15;;;;;;;;;;6244743;23;20000;-86
2022/09/27 21:45:04;;;;;;;1.98;1.77;;;;;;;;;;6246708;22;20010;-88
2022/09/27 21:47:31;;;;;;;1.90;1.80;;;;;;;;;;6246699;22;20064;-88
2022/09/27 21:49:57;;;;;;;2.17;2.00;;;;;;;;;;6244736;22;20008;-89
2022/09/27 21:52:22;;;;;;;2.25;1.95;;;;;;;;;;6244843;23;20004;-88
2022/09/27 21:54:48;;;;;;;2.00;1.90;;;;;;;;;;6246551;22;20008;-86
2022/09/27 21:57:13;;;;;;;2.08;1.98;;;;;;;;;;6246257;22;20004;-87
2022/09/27 21:59:38;;;;;;;3.47;1.90;;;;;;;;;;6246470;22;20079;-86
2022/09/27 22:02:04;;;;;;;2.78;1.83;;;;;;;;;;6246137;22;20008;-86
2022/09/27 22:04:29;;;;;;;2.10;2.00;;;;;;;;;;6246369;22;20330;-87
2022/09/27 22:06:55;;;;;;;2.72;1.88;;;;;;;;;;6246166;22;20352;-87
2022/09/27 22:09:21;;;;;;;2.83;1.95;;;;;;;;;;6246283;22;20327;-87
2022/09/27 22:11:46;;;;;;;2.20;2.00;;;;;;;;;;6247428;22;20008;-87
2022/09/27 22:14:16;;;;;;;2.20;2.05;;;;;;;;;;6247811;22;20043;-86
2022/09/27 22:16:42;;;;;;;2.58;1.80;;;;;;;;;;6248290;23;20374;-86
2022/09/27 22:19:09;;;;;;;2.60;2.03;;;;;;;;;;6248141;22;20000;-86
2022/09/27 22:21:36;;;;;;;2.10;1.95;;;;;;;;;;6248110;23;20004;-86
2022/09/27 22:24:05;;;;;;;3.08;2.45;;;;;;;;;;6247843;23;20004;-86
2022/09/27 22:26:32;;;;;;;2.75;2.55;;;;;;;;;;6248252;23;20003;-87
2022/09/27 22:28:58;;;;;;;2.33;2.15;;;;;;;;;;6248107;23;20000;-86
2022/09/27 22:31:25;;;;;;;3.75;2.33;;;;;;;;;;6247777;22;20004;-87
2022/09/27 22:33:52;;;;;;;4.30;2.40;;;;;;;;;;6248049;23;20039;-86
2022/09/27 22:36:17;;;;;;;4.00;2.30;;;;;;;;;;6248004;23;20068;-86
2022/09/27 22:38:43;;;;;;;2.10;1.90;;;;;;;;;;6248238;23;20008;-85
2022/09/27 22:41:08;;;;;;;2.88;1.70;;;;;;;;;;6247947;22;20004;-86
2022/09/27 22:43:34;;;;;;;1.85;1.70;;;;;;;;;;6247930;23;20374;-86
2022/09/27 22:46:00;;;;;;;2.05;1.70;;;;;;;;;;6248060;23;20000;-87
2022/09/27 22:48:27;;;;;;;2.22;2.03;;;;;;;;;;6247839;23;20068;-85
2022/09/27 22:50:53;;;;;;;2.78;2.33;;;;;;;;;;6247908;22;20035;-86
2022/09/27 22:53:19;;;;;;;2.50;2.30;;;;;;;;;;6248085;23;20067;-82
